createdAt,value
2022-08-23T00:01:17.986Z,9.60
2022-08-23T00:04:15.564Z,10.10
2022-08-23T00:07:11.423Z,9.33
2022-08-23T00:10:00.827Z,9.70
2022-08-23T00:12:50.455Z,9.57
2022-08-23T00:15:40.022Z,9.60
2022-08-23T00:18:31.081Z,9.70
2022-08-23T00:21:20.528Z,9.73
2022-08-23T00:24:12.189Z,9.93
2022-08-23T00:27:07.410Z,9.60
2022-08-23T00:29:58.980Z,9.50
2022-08-23T00:32:48.724Z,9.60
2022-08-23T00:35:39.528Z,9.53
2022-08-23T00:38:33.606Z,9.30
2022-08-23T00:41:24.066Z,9.60
2022-08-23T00:44:39.778Z,9.53
2022-08-23T00:47:41.446Z,9.60
2022-08-23T00:50:41.359Z,9.40
2022-08-23T00:53:35.830Z,9.40
2022-08-23T00:56:30.044Z,9.30
2022-08-23T00:59:19.605Z,9.20
2022-08-23T01:02:11.002Z,10.40
2022-08-23T01:05:01.316Z,9.50
2022-08-23T01:07:57.366Z,9.27
2022-08-23T01:10:56.106Z,9.30
2022-08-23T01:13:50.355Z,9.20
2022-08-23T01:16:45.641Z,9.67
2022-08-23T01:19:39.464Z,9.60
2022-08-23T01:22:38.864Z,9.50
2022-08-23T01:25:33.380Z,9.60
2022-08-23T01:28:22.750Z,9.37
2022-08-23T01:31:13.881Z,9.50
2022-08-23T01:34:07.370Z,9.23
2022-08-23T01:36:59.870Z,9.50
2022-08-23T01:39:49.455Z,9.67
2022-08-23T01:42:41.824Z,9.80
2022-08-23T01:45:34.927Z,9.53
2022-08-23T01:48:25.094Z,9.90
2022-08-23T01:51:16.662Z,9.47
2022-08-23T01:54:06.819Z,9.77
2022-08-23T01:56:56.915Z,9.50
2022-08-23T01:59:47.973Z,9.80
2022-08-23T02:02:37.428Z,9.77
2022-08-23T02:05:27.741Z,9.47
2022-08-23T02:08:34.637Z,9.77
2022-08-23T02:11:26.777Z,9.50
2022-08-23T02:14:20.302Z,9.77
2022-08-23T02:17:16.066Z,9.50
2022-08-23T02:20:09.165Z,9.50
2022-08-23T02:22:58.558Z,9.50
2022-08-23T02:25:48.365Z,9.53
2022-08-23T02:28:38.094Z,9.70
2022-08-23T02:31:27.639Z,9.67
2022-08-23T02:34:20.745Z,9.70
2022-08-23T02:37:13.745Z,9.37
2022-08-23T02:40:03.438Z,9.80
2022-08-23T02:42:53.401Z,9.87
2022-08-23T02:45:43.335Z,9.47
2022-08-23T02:48:32.752Z,9.70
2022-08-23T02:51:27.797Z,9.67
2022-08-23T02:54:17.251Z,9.97
2022-08-23T02:57:07.620Z,9.87
2022-08-23T02:59:58.018Z,9.60
2022-08-23T03:02:48.793Z,9.47
2022-08-23T03:05:38.212Z,9.37
2022-08-23T03:08:29.004Z,9.47
2022-08-23T03:11:22.018Z,9.60
2022-08-23T03:14:14.299Z,9.50
2022-08-23T03:17:03.773Z,9.67
2022-08-23T03:19:53.386Z,9.80
2022-08-23T03:22:53.308Z,10.07
2022-08-23T03:25:47.477Z,10.03
2022-08-23T03:28:46.027Z,9.47
2022-08-23T03:31:36.122Z,9.70
2022-08-23T03:34:31.074Z,10.10
2022-08-23T03:37:21.402Z,9.90
2022-08-23T03:40:12.625Z,10.03
2022-08-23T03:43:03.682Z,10.07
2022-08-23T03:45:53.691Z,10.10
2022-08-23T03:48:43.935Z,10.17
2022-08-23T03:51:35.424Z,10.40
2022-08-23T03:54:25.782Z,9.70
2022-08-23T03:57:17.155Z,9.90
2022-08-23T04:00:12.338Z,10.07
2022-08-23T04:03:05.692Z,9.80
2022-08-23T04:06:05.007Z,10.00
2022-08-23T04:08:55.706Z,10.20
2022-08-23T04:11:45.662Z,10.00
2022-08-23T04:14:37.204Z,9.90
2022-08-23T04:17:32.288Z,9.83
2022-08-23T04:20:22.735Z,10.37
2022-08-23T04:23:22.060Z,9.80
2022-08-23T04:26:15.624Z,9.60
2022-08-23T04:29:07.013Z,9.70
2022-08-23T04:31:58.834Z,10.33
2022-08-23T04:34:51.336Z,9.57
2022-08-23T04:37:41.491Z,9.97
2022-08-23T04:40:48.786Z,9.67
2022-08-23T04:43:39.664Z,9.60
2022-08-23T04:46:29.219Z,10.00
2022-08-23T04:49:22.984Z,9.90
2022-08-23T04:52:19.226Z,9.97
2022-08-23T04:55:09.966Z,9.90
2022-08-23T04:58:12.515Z,10.00
2022-08-23T05:01:10.713Z,9.90
2022-08-23T05:04:00.889Z,9.70
2022-08-23T05:06:52.149Z,9.70
2022-08-23T05:09:44.805Z,9.70
2022-08-23T05:12:35.507Z,10.00
2022-08-23T05:15:24.928Z,10.00
2022-08-23T05:18:20.738Z,10.00
2022-08-23T05:21:15.545Z,9.77
2022-08-23T05:24:06.260Z,10.00
2022-08-23T05:26:58.523Z,9.90
2022-08-23T05:29:47.899Z,9.60
2022-08-23T05:32:38.311Z,10.00
2022-08-23T05:35:28.383Z,10.00
2022-08-23T05:38:20.752Z,9.97
2022-08-23T05:41:11.784Z,9.77
2022-08-23T05:44:03.104Z,13.73
2022-08-23T05:46:53.249Z,13.10
2022-08-23T05:49:54.149Z,11.63
2022-08-23T05:52:49.033Z,11.60
2022-08-23T05:55:40.740Z,10.50
2022-08-23T05:58:40.435Z,10.13
2022-08-23T06:01:32.382Z,10.23
2022-08-23T06:04:27.274Z,10.00
2022-08-23T06:07:17.306Z,10.47
2022-08-23T06:10:08.388Z,10.13
2022-08-23T06:13:07.878Z,10.00
2022-08-23T06:15:58.661Z,9.67
2022-08-23T06:18:49.819Z,9.63
2022-08-23T06:22:05.495Z,9.43
2022-08-23T06:24:59.231Z,9.60
2022-08-23T06:28:09.489Z,9.90
2022-08-23T06:31:00.266Z,9.90
2022-08-23T06:33:56.862Z,11.20
2022-08-23T06:37:01.810Z,10.57
2022-08-23T06:40:10.816Z,10.53
2022-08-23T06:43:12.140Z,10.10
2022-08-23T06:46:28.157Z,9.67
2022-08-23T06:49:20.605Z,9.70
2022-08-23T06:52:10.291Z,14.40
2022-08-23T06:55:21.405Z,12.30
2022-08-23T06:58:25.303Z,11.30
2022-08-23T07:01:46.590Z,11.30
2022-08-23T07:04:53.816Z,11.30
2022-08-23T07:08:02.101Z,11.07
2022-08-23T07:10:51.510Z,10.30
2022-08-23T07:13:41.060Z,10.17
2022-08-23T07:16:34.528Z,10.03
2022-08-23T07:19:29.210Z,10.63
2022-08-23T07:22:20.969Z,12.90
2022-08-23T07:25:10.886Z,14.53
2022-08-23T07:28:02.635Z,12.73
2022-08-23T07:30:52.615Z,11.67
2022-08-23T07:33:44.559Z,11.20
2022-08-23T07:36:40.377Z,10.40
2022-08-23T07:39:32.213Z,10.43
2022-08-23T07:42:24.102Z,10.40
2022-08-23T07:45:17.990Z,10.13
2022-08-23T07:48:12.000Z,10.40
2022-08-23T07:51:23.825Z,10.50
2022-08-23T07:54:13.640Z,14.87
2022-08-23T07:57:13.572Z,13.10
2022-08-23T08:00:24.425Z,11.80
2022-08-23T08:03:23.766Z,11.23
2022-08-23T08:06:37.130Z,10.70
2022-08-23T08:09:26.605Z,10.50
2022-08-23T08:12:17.600Z,10.67
2022-08-23T08:15:11.242Z,10.53
2022-08-23T08:18:03.501Z,10.10
2022-08-23T08:21:16.409Z,10.10
2022-08-23T08:24:25.169Z,10.03
2022-08-23T08:27:22.468Z,9.80
2022-08-23T08:30:13.542Z,10.27
2022-08-23T08:33:03.387Z,9.77
2022-08-23T08:35:57.871Z,10.10
2022-08-23T08:38:51.215Z,9.40
2022-08-23T08:42:11.266Z,9.70
2022-08-23T08:45:11.508Z,9.70
2022-08-23T08:48:13.297Z,9.57
2022-08-23T08:51:21.301Z,10.47
2022-08-23T08:54:16.519Z,9.40
2022-08-23T08:57:10.073Z,9.40
2022-08-23T09:00:13.621Z,9.33
2022-08-23T09:03:14.285Z,9.60
2022-08-23T09:06:13.805Z,9.20
2022-08-23T09:09:43.409Z,9.80
2022-08-23T09:12:49.535Z,9.63
2022-08-23T09:15:50.451Z,9.20
2022-08-23T09:18:40.269Z,9.03
2022-08-23T09:21:34.214Z,9.50
2022-08-23T09:24:24.625Z,9.17
2022-08-23T09:27:25.368Z,9.60
2022-08-23T09:30:20.225Z,9.40
2022-08-23T09:33:20.017Z,9.70
2022-08-23T09:36:19.480Z,9.70
2022-08-23T09:39:30.497Z,9.30
2022-08-23T09:42:32.873Z,9.20
2022-08-23T09:45:35.375Z,9.20
2022-08-23T09:48:41.197Z,9.07
2022-08-23T09:51:41.644Z,10.43
2022-08-23T09:54:41.997Z,9.47
2022-08-23T09:57:36.168Z,9.50
2022-08-23T10:00:29.483Z,8.80
2022-08-23T10:03:25.971Z,9.10
2022-08-23T10:06:34.237Z,8.80
2022-08-23T10:09:30.371Z,8.90
2022-08-23T10:12:20.553Z,8.80
2022-08-23T10:15:12.286Z,8.83
2022-08-23T10:18:09.879Z,8.70
2022-08-23T10:21:07.208Z,8.60
2022-08-23T10:24:31.231Z,8.87
2022-08-23T10:27:55.287Z,8.70
2022-08-23T10:30:55.509Z,8.67
2022-08-23T10:33:51.445Z,8.50
2022-08-23T10:36:56.510Z,8.50
2022-08-23T10:40:03.164Z,8.60
2022-08-23T10:43:11.439Z,8.20
2022-08-23T10:46:03.721Z,8.30
2022-08-23T10:49:01.549Z,8.80
2022-08-23T10:51:53.837Z,8.53
2022-08-23T10:55:00.224Z,8.93
2022-08-23T10:57:53.049Z,8.73
2022-08-23T11:00:43.832Z,8.40
2022-08-23T11:03:38.762Z,8.80
2022-08-23T11:06:51.089Z,8.90
2022-08-23T11:10:15.493Z,8.60
2022-08-23T11:13:23.913Z,8.90
2022-08-23T11:16:25.588Z,9.03
2022-08-23T11:19:51.407Z,8.87
2022-08-23T11:23:14.174Z,8.73
2022-08-23T11:26:11.449Z,8.80
2022-08-23T11:29:31.309Z,8.97
2022-08-23T11:32:46.189Z,8.90
2022-08-23T11:35:45.171Z,8.47
2022-08-23T11:39:09.426Z,8.73
2022-08-23T11:42:07.504Z,9.03
2022-08-23T11:44:58.877Z,8.80
2022-08-23T11:48:05.584Z,8.70
2022-08-23T11:51:20.994Z,8.80
2022-08-23T11:54:29.544Z,8.60
2022-08-23T11:57:37.590Z,8.70
2022-08-23T12:00:47.022Z,8.60
2022-08-23T12:03:53.377Z,8.63
2022-08-23T12:06:51.033Z,8.90
2022-08-23T12:09:56.777Z,8.60
2022-08-23T12:13:32.921Z,8.70
2022-08-23T12:16:39.655Z,8.80
2022-08-23T12:19:44.169Z,8.87
2022-08-23T12:23:02.879Z,8.90
2022-08-23T12:26:08.368Z,8.90
2022-08-23T12:29:08.274Z,8.80
2022-08-23T12:32:07.464Z,9.77
2022-08-23T12:35:19.002Z,9.50
2022-08-23T12:38:16.220Z,9.27
2022-08-23T12:41:25.392Z,9.17
2022-08-23T12:44:20.267Z,9.17
2022-08-23T12:47:19.675Z,10.50
2022-08-23T12:50:22.719Z,9.20
2022-08-23T12:53:29.707Z,9.20
2022-08-23T12:56:22.810Z,9.00
2022-08-23T12:59:39.622Z,9.07
2022-08-23T13:02:34.979Z,9.13
2022-08-23T13:05:36.270Z,9.20
2022-08-23T13:08:35.191Z,9.30
2022-08-23T13:11:30.974Z,9.50
2022-08-23T13:14:25.354Z,9.90
2022-08-23T13:17:32.610Z,12.20
2022-08-23T13:20:24.977Z,10.80
2022-08-23T13:23:17.445Z,10.50
2022-08-23T13:26:26.901Z,10.30
2022-08-23T13:29:24.599Z,9.50
2022-08-23T13:32:37.009Z,9.40
2022-08-23T13:35:37.719Z,9.90
2022-08-23T13:38:33.087Z,9.47
2022-08-23T13:41:38.462Z,9.43
2022-08-23T13:44:31.753Z,9.47
2022-08-23T13:47:27.777Z,9.50
2022-08-23T13:50:24.610Z,9.07
2022-08-23T13:53:23.524Z,9.50
2022-08-23T13:56:15.114Z,9.70
2022-08-23T13:59:31.547Z,9.63
2022-08-23T14:02:23.926Z,9.67
2022-08-23T14:05:14.982Z,9.30
2022-08-23T14:08:05.490Z,9.40
2022-08-23T14:10:54.959Z,9.50
2022-08-23T14:13:48.263Z,9.70
2022-08-23T14:16:40.098Z,9.70
2022-08-23T14:22:42.595Z,9.10
2022-08-23T14:25:32.320Z,9.27
2022-08-23T14:28:29.432Z,9.17
2022-08-23T14:31:19.940Z,9.47
2022-08-23T14:34:09.483Z,9.23
2022-08-23T14:40:13.129Z,9.30
2022-08-23T14:43:02.849Z,9.23
2022-08-23T14:45:53.381Z,8.90
2022-08-23T14:48:42.961Z,8.80
2022-08-23T14:51:35.537Z,9.27
2022-08-23T14:54:27.752Z,9.30
2022-08-23T14:57:18.682Z,9.00
2022-08-23T15:00:13.692Z,9.00
2022-08-23T15:03:09.646Z,9.37
2022-08-23T15:05:59.458Z,9.00
2022-08-23T15:08:49.661Z,9.23
2022-08-23T15:14:50.022Z,9.50
2022-08-23T15:17:45.319Z,9.30
2022-08-23T15:20:37.622Z,9.37
2022-08-23T15:23:27.076Z,9.27
2022-08-23T15:26:21.112Z,9.20
2022-08-23T15:29:10.586Z,9.37
2022-08-23T15:32:01.484Z,9.27
2022-08-23T15:34:50.992Z,9.47
2022-08-23T15:37:41.008Z,9.50
2022-08-23T15:40:34.069Z,9.40
2022-08-23T15:43:28.776Z,9.60
2022-08-23T15:46:25.923Z,9.30
2022-08-23T15:49:19.532Z,9.40
2022-08-23T15:52:09.198Z,9.63
2022-08-23T15:54:58.620Z,9.63
2022-08-23T15:57:56.552Z,9.50
2022-08-23T16:00:52.731Z,9.40
2022-08-23T16:03:48.462Z,9.70
2022-08-23T16:06:45.345Z,9.30
2022-08-23T16:09:40.471Z,9.87
2022-08-23T16:12:31.495Z,9.47
2022-08-23T16:15:21.046Z,9.80
2022-08-23T16:18:10.525Z,9.50
2022-08-23T16:20:59.974Z,9.40
2022-08-23T16:23:51.020Z,9.30
2022-08-23T16:26:42.259Z,9.60
2022-08-23T16:29:35.963Z,9.50
2022-08-23T16:32:25.746Z,9.47
2022-08-23T16:35:15.329Z,9.90
2022-08-23T16:38:05.170Z,9.50
2022-08-23T16:40:56.228Z,9.63
2022-08-23T16:43:46.202Z,9.00
2022-08-23T16:46:36.554Z,9.47
2022-08-23T16:49:26.055Z,9.30
2022-08-23T16:52:17.311Z,9.40
2022-08-23T16:55:12.818Z,9.23
2022-08-23T16:58:04.050Z,9.67
2022-08-23T17:00:53.885Z,9.40
2022-08-23T17:03:43.678Z,9.53
2022-08-23T17:06:33.295Z,9.30
2022-08-23T17:09:23.580Z,9.23
2022-08-23T17:12:13.521Z,9.77
2022-08-23T17:15:05.550Z,9.40
2022-08-23T17:17:55.444Z,9.70
2022-08-23T17:20:45.642Z,9.23
2022-08-23T17:23:39.302Z,9.60
2022-08-23T17:26:30.504Z,9.10
2022-08-23T17:29:20.461Z,9.33
2022-08-23T17:32:11.468Z,9.60
2022-08-23T17:35:01.067Z,9.50
2022-08-23T17:37:50.722Z,9.50
2022-08-23T17:40:42.234Z,9.37
2022-08-23T17:43:31.613Z,9.57
2022-08-23T17:46:21.374Z,9.57
2022-08-23T17:49:13.954Z,9.70
2022-08-23T17:52:03.588Z,10.10
2022-08-23T17:54:53.533Z,9.83
2022-08-23T17:57:42.970Z,9.83
2022-08-23T18:00:34.147Z,9.90
2022-08-23T18:03:23.555Z,10.00
2022-08-23T18:06:17.199Z,10.00
2022-08-23T18:09:08.546Z,10.00
2022-08-23T18:11:58.128Z,10.00
2022-08-23T18:14:47.597Z,9.93
2022-08-23T18:17:38.829Z,10.20
2022-08-23T18:20:29.712Z,10.23
2022-08-23T18:23:20.564Z,10.23
2022-08-23T18:26:33.715Z,9.90
2022-08-23T18:29:22.275Z,10.13
2022-08-23T18:32:12.467Z,10.00
2022-08-23T18:35:02.215Z,10.00
2022-08-23T18:37:52.246Z,9.50
2022-08-23T18:40:46.271Z,10.07
2022-08-23T18:43:37.713Z,9.80
2022-08-23T18:46:33.018Z,10.00
2022-08-23T18:49:23.606Z,9.90
2022-08-23T18:52:13.562Z,9.77
2022-08-23T18:55:03.508Z,9.90
2022-08-23T18:57:56.678Z,10.27
2022-08-23T19:00:47.669Z,10.10
2022-08-23T19:03:41.421Z,10.00
2022-08-23T19:06:32.423Z,10.17
2022-08-23T19:09:21.964Z,10.33
2022-08-23T19:12:11.808Z,10.43
2022-08-23T19:15:02.876Z,10.67
2022-08-23T19:17:54.266Z,11.03
2022-08-23T19:20:46.471Z,10.37
2022-08-23T19:23:36.521Z,10.60
2022-08-23T19:26:32.413Z,10.33
2022-08-23T19:29:22.818Z,10.53
2022-08-23T19:32:15.007Z,10.33
2022-08-23T19:35:06.106Z,10.40
2022-08-23T19:37:56.639Z,10.43
2022-08-23T19:40:47.242Z,13.50
2022-08-23T19:43:39.229Z,13.60
2022-08-23T19:46:29.246Z,12.97
2022-08-23T19:49:20.220Z,11.33
2022-08-23T19:52:09.684Z,11.73
2022-08-23T19:55:05.631Z,11.63
2022-08-23T19:57:57.896Z,11.57
2022-08-23T20:00:47.679Z,11.50
2022-08-23T20:03:37.358Z,11.43
2022-08-23T20:06:28.782Z,11.60
2022-08-23T20:09:20.059Z,10.80
2022-08-23T20:12:09.772Z,11.07
2022-08-23T20:14:59.450Z,11.20
2022-08-23T20:17:49.082Z,11.90
2022-08-23T20:20:38.653Z,11.70
2022-08-23T20:23:46.677Z,12.00
2022-08-23T20:26:40.554Z,11.33
2022-08-23T20:29:30.198Z,11.47
2022-08-23T20:32:19.928Z,11.70
2022-08-23T20:35:11.416Z,11.07
2022-08-23T20:38:02.763Z,11.80
2022-08-23T20:40:54.150Z,11.00
2022-08-23T20:43:44.418Z,11.40
2022-08-23T20:46:34.140Z,11.73
2022-08-23T20:49:24.079Z,11.23
2022-08-23T20:52:13.863Z,11.23
2022-08-23T20:55:03.654Z,11.77
2022-08-23T20:58:00.819Z,11.30
2022-08-23T21:00:50.402Z,11.70
2022-08-23T21:03:40.089Z,12.37
2022-08-23T21:06:37.579Z,13.20
2022-08-23T21:09:29.146Z,12.20
2022-08-23T21:12:18.956Z,11.90
2022-08-23T21:15:11.691Z,12.00
2022-08-23T21:18:01.266Z,11.80
2022-08-23T21:20:52.086Z,11.50
2022-08-23T21:23:43.010Z,11.67
2022-08-23T21:26:32.644Z,11.30
2022-08-23T21:29:22.174Z,11.17
2022-08-23T21:32:12.909Z,11.27
2022-08-23T21:35:02.539Z,11.30
2022-08-23T21:37:51.902Z,11.37
2022-08-23T21:40:41.723Z,11.20
2022-08-23T21:43:31.725Z,11.30
2022-08-23T21:46:21.195Z,11.80
2022-08-23T21:49:12.663Z,11.07
2022-08-23T21:52:02.349Z,11.00
2022-08-23T21:54:52.139Z,11.50
2022-08-23T21:57:42.503Z,11.40
2022-08-23T22:00:32.060Z,11.20
2022-08-23T22:03:21.468Z,11.40
2022-08-23T22:06:17.003Z,11.73
2022-08-23T22:09:09.537Z,12.00
2022-08-23T22:11:59.038Z,12.00
2022-08-23T22:14:48.495Z,12.73
2022-08-23T22:17:38.664Z,11.80
2022-08-23T22:20:28.467Z,11.83
2022-08-23T22:23:19.280Z,11.47
2022-08-23T22:26:08.803Z,11.27
2022-08-23T22:28:58.645Z,11.53
2022-08-23T22:31:49.541Z,11.80
2022-08-23T22:34:39.056Z,12.43
2022-08-23T22:37:28.496Z,12.33
2022-08-23T22:40:20.308Z,12.07
2022-08-23T22:43:09.717Z,11.50
2022-08-23T22:46:01.983Z,11.97
2022-08-23T22:48:53.639Z,11.60
2022-08-23T22:51:43.270Z,11.60
2022-08-23T22:54:33.017Z,11.20
2022-08-23T22:57:23.894Z,11.40
2022-08-23T23:00:14.401Z,11.43
2022-08-23T23:03:03.896Z,12.43
2022-08-23T23:05:54.140Z,11.80
2022-08-23T23:08:43.557Z,11.50
2022-08-23T23:11:34.781Z,11.73
2022-08-23T23:14:25.713Z,11.97
2022-08-23T23:17:15.106Z,11.40
2022-08-23T23:20:23.370Z,11.53
2022-08-23T23:23:16.806Z,11.70
2022-08-23T23:26:08.207Z,11.60
2022-08-23T23:28:57.807Z,12.03
2022-08-23T23:31:48.987Z,12.10
2022-08-23T23:34:38.416Z,11.90
2022-08-23T23:37:27.895Z,13.30
2022-08-23T23:40:17.965Z,13.07
2022-08-23T23:43:12.934Z,12.47
2022-08-23T23:46:06.827Z,12.77
2022-08-23T23:48:57.786Z,12.50
2022-08-23T23:51:47.365Z,13.33
2022-08-23T23:54:38.559Z,13.53
2022-08-23T23:57:27.978Z,13.57
